Time;durP1;ratioP1;P1;durP2;ratioP2;P2;SDS_P1;SDS_P2;PMS_P1;PMS_P2;Temp;Humidity;BMP_temperature;BMP_pressure;BME280_temperature;BME280_humidity;BME280_pressure;Samples;Min_cycle;Max_cycle;Signal;HPM_P1;HPM_P2
2021/09/04 00:03:54;;;;;;;0.00;0.00;;;;;;;;;;10399296;28;20267;-70
2021/09/04 00:08:56;;;;;;;0.00;0.00;;;;;;;;;;10396606;28;20293;-69
2021/09/04 00:13:59;;;;;;;0.00;0.00;;;;;;;;;;10397709;28;20238;-71
2021/09/04 00:19:23;;;;;;;0.00;0.00;;;;;;;;;;10397795;28;20197;-71
2021/09/04 00:24:26;;;;;;;0.00;0.00;;;;;;;;;;10400172;28;20226;-68
2021/09/04 00:29:49;;;;;;;0.00;0.00;;;;;;;;;;10397787;28;20688;-71
2021/09/04 00:34:53;;;;;;;0.00;0.00;;;;;;;;;;10391693;28;20295;-71
2021/09/04 00:39:56;;;;;;;0.00;0.00;;;;;;;;;;10397180;28;20320;-70
2021/09/04 00:44:59;;;;;;;0.00;0.00;;;;;;;;;;10397021;28;20213;-70
2021/09/04 00:50:04;;;;;;;0.00;0.00;;;;;;;;;;10399888;28;20277;-71
2021/09/04 00:55:07;;;;;;;0.00;0.00;;;;;;;;;;10397401;28;20218;-69
2021/09/04 01:00:11;;;;;;;0.00;0.00;;;;;;;;;;10394201;28;20193;-71
2021/09/04 01:05:15;;;;;;;0.10;0.10;;;;;;;;;;10394367;28;20315;-71
2021/09/04 01:10:18;;;;;;;0.00;0.00;;;;;;;;;;10401616;28;20201;-71
2021/09/04 01:15:21;;;;;;;0.00;0.00;;;;;;;;;;10391375;28;20304;-71
2021/09/04 01:20:27;;;;;;;0.00;0.00;;;;;;;;;;10400917;28;20182;-71
2021/09/04 01:25:31;;;;;;;0.00;0.00;;;;;;;;;;10396303;28;20213;-70
2021/09/04 01:30:35;;;;;;;0.00;0.00;;;;;;;;;;10398092;28;20613;-69
2021/09/04 01:35:38;;;;;;;0.00;0.00;;;;;;;;;;10387248;28;20240;-70
2021/09/04 01:40:41;;;;;;;0.00;0.00;;;;;;;;;;10396368;28;20598;-70
2021/09/04 01:45:45;;;;;;;0.00;0.00;;;;;;;;;;10395333;28;20229;-70
2021/09/04 01:50:48;;;;;;;0.00;0.00;;;;;;;;;;10396315;28;20248;-70
2021/09/04 01:55:51;;;;;;;0.00;0.00;;;;;;;;;;10396868;28;20217;-71
2021/09/04 02:00:55;;;;;;;0.00;0.00;;;;;;;;;;10397374;28;20204;-71
2021/09/04 02:05:58;;;;;;;0.00;0.00;;;;;;;;;;10393091;28;20258;-69
2021/09/04 02:11:01;;;;;;;0.00;0.00;;;;;;;;;;10395589;28;20638;-71
2021/09/04 02:16:06;;;;;;;0.00;0.00;;;;;;;;;;10391206;28;20514;-69
2021/09/04 02:21:08;;;;;;;0.00;0.00;;;;;;;;;;10405309;28;20200;-72
2021/09/04 02:26:11;;;;;;;0.00;0.00;;;;;;;;;;10404170;28;20279;-70
2021/09/04 02:31:18;;;;;;;0.00;0.00;;;;;;;;;;10403473;28;20643;-69
2021/09/04 02:36:21;;;;;;;0.00;0.00;;;;;;;;;;10414253;28;20589;-70
2021/09/04 02:41:23;;;;;;;0.00;0.00;;;;;;;;;;10403268;28;20698;-72
2021/09/04 02:46:28;;;;;;;0.00;0.00;;;;;;;;;;10399336;28;20693;-70
2021/09/04 02:51:30;;;;;;;0.00;0.00;;;;;;;;;;10404714;28;20200;-72
2021/09/04 02:56:33;;;;;;;0.00;0.00;;;;;;;;;;10402505;28;20256;-70
2021/09/04 03:01:37;;;;;;;0.00;0.00;;;;;;;;;;10403278;28;20647;-71
2021/09/04 03:06:42;;;;;;;0.00;0.00;;;;;;;;;;10399368;28;20239;-71
2021/09/04 03:11:44;;;;;;;0.00;0.00;;;;;;;;;;10399315;28;20281;-71
2021/09/04 03:16:48;;;;;;;0.00;0.00;;;;;;;;;;10410172;28;20225;-71
2021/09/04 03:21:51;;;;;;;0.00;0.00;;;;;;;;;;10406020;28;20280;-70
2021/09/04 03:26:54;;;;;;;0.00;0.00;;;;;;;;;;10401981;28;20267;-72
2021/09/04 03:31:58;;;;;;;0.00;0.00;;;;;;;;;;10402117;28;20681;-70
2021/09/04 03:37:01;;;;;;;0.00;0.00;;;;;;;;;;10396738;28;20243;-70
2021/09/04 03:42:04;;;;;;;0.00;0.00;;;;;;;;;;10421352;28;20190;-72
2021/09/04 03:47:08;;;;;;;0.00;0.00;;;;;;;;;;10399911;28;20305;-71
2021/09/04 03:52:11;;;;;;;0.00;0.00;;;;;;;;;;10395893;28;20211;-70
2021/09/04 03:57:14;;;;;;;0.00;0.00;;;;;;;;;;10400010;28;20209;-71
2021/09/04 04:02:18;;;;;;;0.00;0.00;;;;;;;;;;10398790;28;20228;-70
2021/09/04 04:07:21;;;;;;;0.00;0.00;;;;;;;;;;10400220;28;20201;-69
2021/09/04 04:12:24;;;;;;;0.00;0.00;;;;;;;;;;10394525;28;20206;-70
2021/09/04 04:17:30;;;;;;;0.00;0.00;;;;;;;;;;10395291;28;20752;-72
2021/09/04 04:22:33;;;;;;;0.00;0.00;;;;;;;;;;10394042;28;20205;-71
2021/09/04 04:27:35;;;;;;;0.00;0.00;;;;;;;;;;10398623;28;20251;-72
2021/09/04 04:32:40;;;;;;;0.00;0.00;;;;;;;;;;10395878;28;20221;-69
2021/09/04 04:37:44;;;;;;;0.00;0.00;;;;;;;;;;10395089;28;20214;-71
2021/09/04 04:42:46;;;;;;;0.00;0.00;;;;;;;;;;10397224;28;20301;-70
2021/09/04 04:47:52;;;;;;;0.00;0.00;;;;;;;;;;10399092;28;20245;-68
2021/09/04 04:52:55;;;;;;;0.00;0.00;;;;;;;;;;10397574;28;20543;-70
2021/09/04 04:57:58;;;;;;;0.00;0.00;;;;;;;;;;10398183;28;20304;-70
2021/09/04 05:03:03;;;;;;;0.00;0.00;;;;;;;;;;10396754;28;20267;-69
2021/09/04 05:08:06;;;;;;;0.00;0.00;;;;;;;;;;10396893;28;20694;-72
2021/09/04 05:13:09;;;;;;;0.00;0.00;;;;;;;;;;10391504;28;20197;-71
2021/09/04 05:18:13;;;;;;;0.00;0.00;;;;;;;;;;10414945;28;20320;-70
2021/09/04 05:23:16;;;;;;;0.00;0.00;;;;;;;;;;10396321;28;20685;-70
2021/09/04 05:28:19;;;;;;;0.00;0.00;;;;;;;;;;10396628;28;20213;-70
2021/09/04 05:33:23;;;;;;;0.00;0.00;;;;;;;;;;10396504;28;20274;-69
2021/09/04 05:38:26;;;;;;;0.00;0.00;;;;;;;;;;10394875;28;20832;-71
2021/09/04 05:43:28;;;;;;;0.10;0.10;;;;;;;;;;10389165;28;20199;-68
2021/09/04 05:48:33;;;;;;;0.00;0.00;;;;;;;;;;10388864;28;20281;-74
2021/09/04 05:53:38;;;;;;;0.10;0.10;;;;;;;;;;10392059;28;20194;-71
2021/09/04 05:58:41;;;;;;;0.00;0.00;;;;;;;;;;10389590;28;20221;-70
2021/09/04 06:03:45;;;;;;;0.00;0.00;;;;;;;;;;10394712;28;20642;-70
2021/09/04 06:08:48;;;;;;;0.00;0.00;;;;;;;;;;10394416;28;20192;-72
2021/09/04 06:13:51;;;;;;;0.00;0.00;;;;;;;;;;10393524;28;20213;-69
2021/09/04 06:18:55;;;;;;;0.00;0.00;;;;;;;;;;10395543;28;20221;-73
2021/09/04 06:23:58;;;;;;;0.00;0.00;;;;;;;;;;10388739;28;20221;-71
2021/09/04 06:29:01;;;;;;;0.00;0.00;;;;;;;;;;10386844;28;20210;-71
2021/09/04 06:34:05;;;;;;;0.00;0.00;;;;;;;;;;10382359;28;20220;-70
2021/09/04 06:39:08;;;;;;;0.10;0.10;;;;;;;;;;10389562;28;20244;-71
2021/09/04 06:44:11;;;;;;;0.10;0.10;;;;;;;;;;10386363;28;20222;-71
2021/09/04 06:49:15;;;;;;;0.10;0.10;;;;;;;;;;10386570;28;20186;-70
2021/09/04 06:54:19;;;;;;;0.10;0.10;;;;;;;;;;10384713;28;20662;-71
2021/09/04 06:59:22;;;;;;;0.10;0.10;;;;;;;;;;10389417;28;20650;-71
2021/09/04 07:04:26;;;;;;;0.20;0.20;;;;;;;;;;10388250;28;20248;-71
2021/09/04 07:09:29;;;;;;;0.30;0.30;;;;;;;;;;10394038;28;20221;-72
2021/09/04 07:14:31;;;;;;;0.20;0.20;;;;;;;;;;10394718;28;20225;-72
2021/09/04 07:19:35;;;;;;;0.30;0.30;;;;;;;;;;10391156;28;20686;-73
2021/09/04 07:24:38;;;;;;;0.20;0.20;;;;;;;;;;10398929;28;20246;-72
2021/09/04 07:29:41;;;;;;;0.30;0.30;;;;;;;;;;10390344;28;20273;-71
2021/09/04 07:34:46;;;;;;;0.40;0.40;;;;;;;;;;10397219;28;20229;-72
2021/09/04 07:39:48;;;;;;;0.30;0.30;;;;;;;;;;10399500;28;20219;-72
2021/09/04 07:44:51;;;;;;;0.30;0.30;;;;;;;;;;10391233;28;20297;-69
2021/09/04 07:49:55;;;;;;;0.40;0.40;;;;;;;;;;10393846;28;20637;-71
2021/09/04 07:54:58;;;;;;;0.40;0.40;;;;;;;;;;10394179;28;20299;-71
2021/09/04 08:00:01;;;;;;;0.40;0.40;;;;;;;;;;10395771;28;20213;-70
2021/09/04 08:05:07;;;;;;;0.40;0.40;;;;;;;;;;10391717;28;20826;-71
2021/09/04 08:10:10;;;;;;;0.50;0.50;;;;;;;;;;10394240;28;20208;-71
2021/09/04 08:15:13;;;;;;;0.50;0.50;;;;;;;;;;10390583;28;20581;-72
2021/09/04 08:20:17;;;;;;;0.50;0.50;;;;;;;;;;10396223;28;20213;-72
2021/09/04 08:25:20;;;;;;;0.50;0.50;;;;;;;;;;10395933;28;20285;-71
2021/09/04 08:30:23;;;;;;;0.55;0.55;;;;;;;;;;10409550;28;20609;-69
2021/09/04 08:35:27;;;;;;;0.50;0.50;;;;;;;;;;10393888;28;20221;-69
2021/09/04 08:40:30;;;;;;;0.70;0.70;;;;;;;;;;10393567;28;20738;-71
2021/09/04 08:45:32;;;;;;;0.70;0.70;;;;;;;;;;10390251;28;20212;-71
2021/09/04 08:50:37;;;;;;;0.88;0.88;;;;;;;;;;10391725;28;20615;-68
2021/09/04 08:55:40;;;;;;;0.80;0.80;;;;;;;;;;10398767;28;20229;-70
2021/09/04 09:00:44;;;;;;;0.80;0.80;;;;;;;;;;10397435;28;20247;-68
2021/09/04 09:05:48;;;;;;;0.82;0.82;;;;;;;;;;10392889;28;20221;-71
2021/09/04 09:10:52;;;;;;;0.90;0.90;;;;;;;;;;10399102;28;20193;-69
2021/09/04 09:15:56;;;;;;;1.00;1.00;;;;;;;;;;10393109;28;20732;-71
2021/09/04 09:21:01;;;;;;;0.90;0.90;;;;;;;;;;10400897;28;20217;-73
2021/09/04 09:26:08;;;;;;;1.00;1.00;;;;;;;;;;10398380;28;20217;-71
2021/09/04 09:31:11;;;;;;;0.90;0.90;;;;;;;;;;10398571;28;20185;-70
2021/09/04 09:36:17;;;;;;;0.90;0.90;;;;;;;;;;10387449;28;20286;-70
2021/09/04 09:41:20;;;;;;;0.90;0.90;;;;;;;;;;10401778;28;20225;-72
2021/09/04 09:46:23;;;;;;;0.90;0.90;;;;;;;;;;10390027;28;20613;-70
2021/09/04 09:51:27;;;;;;;0.90;0.90;;;;;;;;;;10399293;28;20698;-70
2021/09/04 09:56:30;;;;;;;0.90;0.90;;;;;;;;;;10394492;28;20212;-72
2021/09/04 10:01:33;;;;;;;0.80;0.80;;;;;;;;;;10394724;28;20687;-69
2021/09/04 10:06:38;;;;;;;0.90;0.90;;;;;;;;;;10393821;28;20284;-73
2021/09/04 10:11:41;;;;;;;0.90;0.90;;;;;;;;;;10394733;28;20221;-70
2021/09/04 10:16:44;;;;;;;0.95;0.95;;;;;;;;;;10393654;28;20224;-70
2021/09/04 10:21:49;;;;;;;0.90;0.90;;;;;;;;;;10389533;28;20229;-68
2021/09/04 10:26:59;;;;;;;0.90;0.90;;;;;;;;;;10395503;28;20210;-67
2021/09/04 10:32:02;;;;;;;0.80;0.80;;;;;;;;;;10393742;28;20193;-70
2021/09/04 10:37:08;;;;;;;0.90;0.90;;;;;;;;;;10395366;28;20233;-69
2021/09/04 10:42:11;;;;;;;0.80;0.80;;;;;;;;;;10392558;28;20201;-69
2021/09/04 10:47:14;;;;;;;0.80;0.80;;;;;;;;;;10400680;28;20236;-69
2021/09/04 10:52:38;;;;;;;0.80;0.80;;;;;;;;;;10398541;28;20201;-70
2021/09/04 10:57:45;;;;;;;1.00;1.00;;;;;;;;;;10401556;28;20280;-69
2021/09/04 11:02:49;;;;;;;0.90;0.90;;;;;;;;;;10398345;28;20248;-68
2021/09/04 11:08:00;;;;;;;0.80;0.80;;;;;;;;;;10401497;28;20317;-69
2021/09/04 11:13:22;;;;;;;0.80;0.80;;;;;;;;;;10393389;28;20205;-71
2021/09/04 11:18:44;;;;;;;0.70;0.70;;;;;;;;;;10398125;28;20214;-68
2021/09/04 11:23:50;;;;;;;0.80;0.80;;;;;;;;;;10394336;28;20367;-70
2021/09/04 11:28:57;;;;;;;0.80;0.80;;;;;;;;;;10399207;28;20200;-70
2021/09/04 11:34:00;;;;;;;0.80;0.80;;;;;;;;;;10397634;28;20221;-70
2021/09/04 11:39:04;;;;;;;0.77;0.77;;;;;;;;;;10398807;28;20224;-69
2021/09/04 11:44:10;;;;;;;0.80;0.80;;;;;;;;;;10387356;28;20260;-70
2021/09/04 11:49:13;;;;;;;0.90;0.90;;;;;;;;;;10394769;28;20749;-69
2021/09/04 11:54:27;;;;;;;0.70;0.70;;;;;;;;;;10398706;28;20285;-69
2021/09/04 11:59:30;;;;;;;0.77;0.77;;;;;;;;;;10392292;28;20259;-69
2021/09/04 12:04:35;;;;;;;0.80;0.80;;;;;;;;;;10374985;28;20263;-70
2021/09/04 12:09:39;;;;;;;0.70;0.70;;;;;;;;;;10394915;28;20693;-71
2021/09/04 12:14:42;;;;;;;0.80;0.80;;;;;;;;;;10395721;28;20591;-77
2021/09/04 12:19:45;;;;;;;0.70;0.70;;;;;;;;;;10393216;28;20216;-70
2021/09/04 12:24:50;;;;;;;0.70;0.70;;;;;;;;;;10400902;28;20280;-69
2021/09/04 12:30:01;;;;;;;0.70;0.70;;;;;;;;;;10400294;28;20198;-70
2021/09/04 12:35:06;;;;;;;0.65;0.65;;;;;;;;;;10396835;28;20224;-70
2021/09/04 12:40:13;;;;;;;0.63;0.63;;;;;;;;;;10400043;28;20206;-70
2021/09/04 12:45:18;;;;;;;0.60;0.60;;;;;;;;;;10392051;28;20217;-69
2021/09/04 12:50:22;;;;;;;0.60;0.60;;;;;;;;;;10395045;28;20194;-69
2021/09/04 12:55:27;;;;;;;0.60;0.60;;;;;;;;;;10394342;28;20229;-69
2021/09/04 13:00:30;;;;;;;0.65;0.65;;;;;;;;;;10397240;28;20244;-69
2021/09/04 13:05:33;;;;;;;0.60;0.60;;;;;;;;;;10400190;28;20216;-68
2021/09/04 13:10:37;;;;;;;0.55;0.55;;;;;;;;;;10393953;28;20261;-68
2021/09/04 13:15:41;;;;;;;0.50;0.50;;;;;;;;;;10391329;28;20279;-68
2021/09/04 13:20:44;;;;;;;0.50;0.50;;;;;;;;;;10383128;28;20210;-72
2021/09/04 13:25:48;;;;;;;0.50;0.50;;;;;;;;;;10391634;28;20295;-68
2021/09/04 13:30:51;;;;;;;0.40;0.40;;;;;;;;;;10396843;28;20198;-72
2021/09/04 13:35:54;;;;;;;0.40;0.40;;;;;;;;;;10392991;28;20287;-70
2021/09/04 13:40:58;;;;;;;0.50;0.50;;;;;;;;;;10397214;28;20264;-72
2021/09/04 13:46:01;;;;;;;0.40;0.40;;;;;;;;;;10398942;28;20209;-72
2021/09/04 13:51:04;;;;;;;0.40;0.40;;;;;;;;;;10388970;28;20197;-70
2021/09/04 13:56:08;;;;;;;0.40;0.40;;;;;;;;;;10390427;28;20244;-71
2021/09/04 14:01:11;;;;;;;0.35;0.35;;;;;;;;;;10387909;28;20213;-71
2021/09/04 14:06:14;;;;;;;0.35;0.35;;;;;;;;;;10393579;28;20217;-70
2021/09/04 14:11:18;;;;;;;0.30;0.30;;;;;;;;;;10396417;28;20217;-71
2021/09/04 14:16:21;;;;;;;0.30;0.30;;;;;;;;;;10402299;28;20248;-72
2021/09/04 14:21:24;;;;;;;0.30;0.30;;;;;;;;;;10402017;28;20222;-72
2021/09/04 14:26:28;;;;;;;0.30;0.30;;;;;;;;;;10404847;28;20217;-71
2021/09/04 14:31:31;;;;;;;0.30;0.30;;;;;;;;;;10401227;28;20247;-70
2021/09/04 14:36:34;;;;;;;0.30;0.30;;;;;;;;;;10396803;28;20253;-71
2021/09/04 14:41:38;;;;;;;0.30;0.30;;;;;;;;;;10405482;28;20216;-72
2021/09/04 14:46:41;;;;;;;0.25;0.25;;;;;;;;;;10399286;28;20788;-72
2021/09/04 14:51:44;;;;;;;0.20;0.20;;;;;;;;;;10403930;28;20276;-71
2021/09/04 14:56:49;;;;;;;0.20;0.20;;;;;;;;;;10401819;28;20245;-71
2021/09/04 15:01:52;;;;;;;0.20;0.20;;;;;;;;;;10402659;28;20221;-68
2021/09/04 15:06:55;;;;;;;0.30;0.30;;;;;;;;;;10401340;28;20288;-71
2021/09/04 15:12:00;;;;;;;0.20;0.20;;;;;;;;;;10399588;28;20217;-70
2021/09/04 15:17:04;;;;;;;0.20;0.20;;;;;;;;;;10401220;28;20701;-69
2021/09/04 15:22:07;;;;;;;0.20;0.20;;;;;;;;;;10401291;28;20243;-72
2021/09/04 15:27:11;;;;;;;0.20;0.20;;;;;;;;;;10405772;28;20241;-72
2021/09/04 15:32:14;;;;;;;0.22;0.22;;;;;;;;;;10403091;28;20195;-72
2021/09/04 15:37:16;;;;;;;0.20;0.20;;;;;;;;;;10401314;28;20277;-70
2021/09/04 15:42:21;;;;;;;0.20;0.20;;;;;;;;;;10403461;28;20707;-71
2021/09/04 15:47:24;;;;;;;0.20;0.20;;;;;;;;;;10402588;28;20638;-72
2021/09/04 15:52:26;;;;;;;0.20;0.20;;;;;;;;;;10400621;28;20248;-69
2021/09/04 15:57:31;;;;;;;0.20;0.20;;;;;;;;;;10394880;28;20624;-71
2021/09/04 16:02:33;;;;;;;0.20;0.20;;;;;;;;;;10396259;28;20662;-71
2021/09/04 16:07:36;;;;;;;0.20;0.20;;;;;;;;;;10395619;28;20589;-72
2021/09/04 16:12:41;;;;;;;0.20;0.20;;;;;;;;;;10397229;28;20182;-72
2021/09/04 16:17:43;;;;;;;0.20;0.20;;;;;;;;;;10391775;28;20674;-72
2021/09/04 16:22:46;;;;;;;0.20;0.20;;;;;;;;;;10390534;28;20205;-70
2021/09/04 16:27:50;;;;;;;0.20;0.20;;;;;;;;;;10397683;28;20217;-72
2021/09/04 16:32:53;;;;;;;0.10;0.10;;;;;;;;;;10399197;28;20198;-72
2021/09/04 16:37:56;;;;;;;0.20;0.20;;;;;;;;;;10395289;28;20696;-70
2021/09/04 16:43:00;;;;;;;0.13;0.13;;;;;;;;;;10399341;28;20218;-71
2021/09/04 16:48:03;;;;;;;0.10;0.10;;;;;;;;;;10400248;28;20249;-71
2021/09/04 16:53:06;;;;;;;0.20;0.20;;;;;;;;;;10394642;28;20293;-71
2021/09/04 16:58:10;;;;;;;0.10;0.10;;;;;;;;;;10399311;28;20221;-72
2021/09/04 17:03:13;;;;;;;0.10;0.10;;;;;;;;;;10406934;28;20301;-71
2021/09/04 17:08:16;;;;;;;0.20;0.20;;;;;;;;;;10400277;28;20711;-71
2021/09/04 17:13:21;;;;;;;0.10;0.10;;;;;;;;;;10388664;28;20186;-71
2021/09/04 17:18:24;;;;;;;0.20;0.20;;;;;;;;;;10397721;28;20292;-70
2021/09/04 17:23:26;;;;;;;0.10;0.10;;;;;;;;;;10386761;28;20213;-71
2021/09/04 17:28:31;;;;;;;0.10;0.10;;;;;;;;;;10398926;28;20626;-70
2021/09/04 17:33:35;;;;;;;0.10;0.10;;;;;;;;;;10397123;28;20639;-70
2021/09/04 17:38:38;;;;;;;0.10;0.10;;;;;;;;;;10388441;28;20213;-72
2021/09/04 17:43:43;;;;;;;0.10;0.10;;;;;;;;;;10397006;28;20201;-70
2021/09/04 17:48:45;;;;;;;0.10;0.10;;;;;;;;;;10395073;28;20235;-68
2021/09/04 17:53:48;;;;;;;0.10;0.10;;;;;;;;;;10395731;28;20201;-71
2021/09/04 17:58:53;;;;;;;0.10;0.10;;;;;;;;;;10395895;28;20754;-71
2021/09/04 18:03:55;;;;;;;0.10;0.10;;;;;;;;;;10393699;28;20237;-72
2021/09/04 18:08:58;;;;;;;0.17;0.10;;;;;;;;;;10396438;28;20209;-71
2021/09/04 18:14:03;;;;;;;0.10;0.10;;;;;;;;;;10390226;28;20275;-70
2021/09/04 18:19:05;;;;;;;0.10;0.10;;;;;;;;;;10399800;28;20205;-71
2021/09/04 18:24:08;;;;;;;0.10;0.10;;;;;;;;;;10392145;28;20241;-70
2021/09/04 18:29:13;;;;;;;0.10;0.10;;;;;;;;;;10398015;28;20196;-72
2021/09/04 18:34:15;;;;;;;0.10;0.10;;;;;;;;;;10405268;28;20237;-71
2021/09/04 18:39:18;;;;;;;0.10;0.10;;;;;;;;;;10395844;28;20811;-70
2021/09/04 18:44:22;;;;;;;0.10;0.10;;;;;;;;;;10395283;28;20296;-72
2021/09/04 18:49:25;;;;;;;0.00;0.00;;;;;;;;;;10396333;28;20213;-72
2021/09/04 18:54:28;;;;;;;0.10;0.10;;;;;;;;;;10396380;28;20256;-71
2021/09/04 18:59:32;;;;;;;0.10;0.10;;;;;;;;;;10395376;28;20196;-70
2021/09/04 19:04:35;;;;;;;0.10;0.10;;;;;;;;;;10402011;28;20217;-71
2021/09/04 19:09:38;;;;;;;0.10;0.10;;;;;;;;;;10405638;28;20685;-70
2021/09/04 19:14:44;;;;;;;0.10;0.10;;;;;;;;;;10404216;28;20214;-71
2021/09/04 19:19:47;;;;;;;0.10;0.10;;;;;;;;;;10404746;28;20214;-72
2021/09/04 19:24:51;;;;;;;0.10;0.10;;;;;;;;;;10387696;28;20225;-72
2021/09/04 19:29:55;;;;;;;0.00;0.00;;;;;;;;;;10387664;28;20197;-72
2021/09/04 19:34:58;;;;;;;0.00;0.00;;;;;;;;;;10387334;28;20586;-69
2021/09/04 19:40:00;;;;;;;0.00;0.00;;;;;;;;;;10389290;28;20723;-71
2021/09/04 19:45:06;;;;;;;0.10;0.10;;;;;;;;;;10389782;28;20759;-68
2021/09/04 19:50:10;;;;;;;0.00;0.00;;;;;;;;;;10396017;28;20248;-71
2021/09/04 19:55:12;;;;;;;0.03;0.03;;;;;;;;;;10392406;28;20650;-70
2021/09/04 20:00:17;;;;;;;0.10;0.10;;;;;;;;;;10392239;28;20712;-71
2021/09/04 20:05:21;;;;;;;0.10;0.10;;;;;;;;;;10396575;28;20635;-71
2021/09/04 20:10:24;;;;;;;0.10;0.10;;;;;;;;;;10392555;28;20183;-71
2021/09/04 20:15:28;;;;;;;0.03;0.03;;;;;;;;;;10397262;28;20232;-69
2021/09/04 20:20:31;;;;;;;0.00;0.00;;;;;;;;;;10393157;28;20971;-70
2021/09/04 20:25:34;;;;;;;0.10;0.10;;;;;;;;;;10401479;28;20444;-71
2021/09/04 20:30:38;;;;;;;0.07;0.07;;;;;;;;;;10396827;28;20201;-71
2021/09/04 20:35:45;;;;;;;0.10;0.10;;;;;;;;;;10390403;28;20501;-72
2021/09/04 20:40:48;;;;;;;0.07;0.07;;;;;;;;;;10393845;28;20302;-69
2021/09/04 20:45:53;;;;;;;0.00;0.00;;;;;;;;;;10382218;28;20658;-72
2021/09/04 20:50:56;;;;;;;0.10;0.10;;;;;;;;;;10388773;28;20292;-70
2021/09/04 20:55:58;;;;;;;0.00;0.00;;;;;;;;;;10383172;28;20222;-70
2021/09/04 21:01:02;;;;;;;0.00;0.00;;;;;;;;;;10388064;28;20214;-72
2021/09/04 21:06:06;;;;;;;0.10;0.10;;;;;;;;;;10386512;28;20236;-71
2021/09/04 21:11:08;;;;;;;0.10;0.10;;;;;;;;;;10387015;28;20194;-70
2021/09/04 21:16:13;;;;;;;0.00;0.00;;;;;;;;;;10394814;28;20209;-70
2021/09/04 21:21:15;;;;;;;0.00;0.00;;;;;;;;;;10393987;28;20206;-71
2021/09/04 21:26:18;;;;;;;0.10;0.10;;;;;;;;;;10398312;28;20268;-71
2021/09/04 21:31:23;;;;;;;0.10;0.10;;;;;;;;;;10399273;28;20673;-72
2021/09/04 21:36:27;;;;;;;0.10;0.10;;;;;;;;;;10395458;28;20221;-71
2021/09/04 21:41:30;;;;;;;0.07;0.07;;;;;;;;;;10398981;28;20275;-71
2021/09/04 21:46:34;;;;;;;0.00;0.00;;;;;;;;;;10389082;28;20237;-70
2021/09/04 21:51:37;;;;;;;0.00;0.00;;;;;;;;;;10393343;28;20197;-70
2021/09/04 21:56:40;;;;;;;0.00;0.00;;;;;;;;;;10396257;28;20233;-70
2021/09/04 22:01:44;;;;;;;0.00;0.00;;;;;;;;;;10394385;28;20210;-70
2021/09/04 22:06:47;;;;;;;0.00;0.00;;;;;;;;;;10394325;28;20228;-70
2021/09/04 22:11:50;;;;;;;0.10;0.10;;;;;;;;;;10398650;28;20218;-69
2021/09/04 22:16:54;;;;;;;0.00;0.00;;;;;;;;;;10393213;28;20268;-70
2021/09/04 22:21:57;;;;;;;0.10;0.10;;;;;;;;;;10393041;28;20209;-71
2021/09/04 22:27:00;;;;;;;0.10;0.10;;;;;;;;;;10399911;28;20221;-70
2021/09/04 22:32:05;;;;;;;0.10;0.10;;;;;;;;;;10396863;28;20190;-68
2021/09/04 22:42:28;;;;;;;0.00;0.00;;;;;;;;;;10402772;28;20237;-69
2021/09/04 22:47:32;;;;;;;0.00;0.00;;;;;;;;;;10399865;28;20590;-71
2021/09/04 22:52:35;;;;;;;0.00;0.00;;;;;;;;;;10403221;28;20280;-69
2021/09/04 22:57:38;;;;;;;0.00;0.00;;;;;;;;;;10404570;28;20217;-70
2021/09/04 23:02:42;;;;;;;0.00;0.00;;;;;;;;;;10400398;28;20277;-71
2021/09/04 23:07:45;;;;;;;0.10;0.10;;;;;;;;;;10402091;28;20237;-71
2021/09/04 23:12:48;;;;;;;0.00;0.00;;;;;;;;;;10403460;28;20209;-70
2021/09/04 23:17:52;;;;;;;0.07;0.07;;;;;;;;;;10404847;28;20932;-71
2021/09/04 23:22:55;;;;;;;0.00;0.00;;;;;;;;;;10402365;28;20213;-71
2021/09/04 23:27:58;;;;;;;0.00;0.00;;;;;;;;;;10405328;28;20534;-70
2021/09/04 23:33:02;;;;;;;0.00;0.00;;;;;;;;;;10402694;28;20324;-71
2021/09/04 23:38:05;;;;;;;0.00;0.00;;;;;;;;;;10402486;28;20629;-70
2021/09/04 23:43:08;;;;;;;0.00;0.00;;;;;;;;;;10402463;28;20214;-69
2021/09/04 23:48:12;;;;;;;0.10;0.10;;;;;;;;;;10400793;28;20217;-69
2021/09/04 23:53:16;;;;;;;0.00;0.00;;;;;;;;;;10404118;28;20193;-68
2021/09/04 23:58:18;;;;;;;0.00;0.00;;;;;;;;;;10406020;28;20833;-70
